XNO379 EHAM-EDDH
Flight info
| Callsign | XNO379 |
|---|---|
| Flight time | 1h 12m |
| Altitude | 35000 |
| Route | ANDIK M105 RIBSO RIBSO7A |
| Aircraft | A319/M-SDE3FGHIRWY/LB1 |
Departure
| Time | 2026-04-30 18:37 |
|---|---|
| Airport | Amsterdam Airport Schiphol (EHAM) |
Arrival
| Time | 2026-04-30 19:50 |
|---|---|
| Airport | Hamburg Helmut Schmidt Airport (EDDH) |
| Time | Latitude | Longitude | Altitude | Speed | Heading |
|---|---|---|---|---|---|
| 2026-04-30 18:10 | 52.30715 | 4.77026 | -1 ft | 0 kts | 3° |
| 2026-04-30 18:23 | 52.30710 | 4.77025 | -1 ft | 4 kts | 3° |
| 2026-04-30 18:23 | 52.30683 | 4.77023 | -1 ft | 3 kts | 3° |
| 2026-04-30 18:23 | 52.30662 | 4.77021 | -1 ft | 3 kts | 3° |
| 2026-04-30 18:23 | 52.30655 | 4.77030 | -1 ft | 4 kts | 92° |
| 2026-04-30 18:24 | 52.30655 | 4.76955 | -1 ft | 2 kts | 96° |
| 2026-04-30 18:24 | 52.30655 | 4.76952 | -1 ft | 0 kts | 94° |
| 2026-04-30 18:27 | 52.30652 | 4.77045 | -1 ft | 9 kts | 92° |
| 2026-04-30 18:27 | 52.30649 | 4.77159 | -1 ft | 11 kts | 92° |
| 2026-04-30 18:28 | 52.30642 | 4.77448 | -1 ft | 14 kts | 90° |
| 2026-04-30 18:28 | 52.30672 | 4.77579 | -1 ft | 13 kts | 28° |
| 2026-04-30 18:28 | 52.30883 | 4.77604 | -1 ft | 17 kts | 2° |
| 2026-04-30 18:29 | 52.31010 | 4.77613 | -1 ft | 19 kts | 2° |
| 2026-04-30 18:29 | 52.31421 | 4.77649 | -1 ft | 20 kts | 352° |
| 2026-04-30 18:30 | 52.31575 | 4.77379 | -1 ft | 21 kts | 276° |
| 2026-04-30 18:30 | 52.31558 | 4.76851 | -1 ft | 16 kts | 267° |
| 2026-04-30 18:31 | 52.31552 | 4.76663 | -1 ft | 18 kts | 267° |
| 2026-04-30 18:31 | 52.31539 | 4.76251 | -1 ft | 18 kts | 266° |
| 2026-04-30 18:32 | 52.31521 | 4.75802 | -1 ft | 19 kts | 266° |
| 2026-04-30 18:32 | 52.31513 | 4.75574 | -1 ft | 21 kts | 267° |
| 2026-04-30 18:32 | 52.31498 | 4.75077 | -1 ft | 21 kts | 266° |
| 2026-04-30 18:33 | 52.31491 | 4.74884 | -1 ft | 13 kts | 266° |
| 2026-04-30 18:33 | 52.31491 | 4.74715 | -1 ft | 6 kts | 291° |
| 2026-04-30 18:33 | 52.31530 | 4.74666 | -1 ft | 8 kts | 348° |
| 2026-04-30 18:34 | 52.31558 | 4.74661 | -1 ft | 1 kts | 355° |
| 2026-04-30 18:34 | 52.31633 | 4.74669 | 0 ft | 8 kts | 20° |
| 2026-04-30 18:34 | 52.31667 | 4.74746 | -1 ft | 7 kts | 85° |
| 2026-04-30 18:35 | 52.31668 | 4.74748 | -1 ft | 0 kts | 85° |
| 2026-04-30 18:36 | 52.31668 | 4.74755 | -1 ft | 2 kts | 85° |
| 2026-04-30 18:37 | 52.31695 | 4.75531 | -3 ft | 115 kts | 87° |
| 2026-04-30 18:37 | 52.31753 | 4.77154 | 470 ft | 149 kts | 88° |
| 2026-04-30 18:37 | 52.31792 | 4.78297 | 1183 ft | 149 kts | 90° |
| 2026-04-30 18:37 | 52.31875 | 4.80034 | 1908 ft | 163 kts | 89° |
| 2026-04-30 18:38 | 52.31975 | 4.82021 | 2514 ft | 187 kts | 90° |
| 2026-04-30 18:38 | 52.32089 | 4.84278 | 3142 ft | 212 kts | 89° |
| 2026-04-30 18:38 | 52.32220 | 4.86815 | 3755 ft | 236 kts | 89° |
| 2026-04-30 18:38 | 52.32438 | 4.89559 | 4627 ft | 252 kts | 78° |
| 2026-04-30 18:39 | 52.33307 | 4.92128 | 5633 ft | 266 kts | 59° |
| 2026-04-30 18:39 | 52.34391 | 4.94597 | 6101 ft | 268 kts | 59° |
| 2026-04-30 18:39 | 52.35483 | 4.97060 | 6277 ft | 267 kts | 59° |
| 2026-04-30 18:39 | 52.36571 | 4.99516 | 6323 ft | 266 kts | 59° |
| 2026-04-30 18:40 | 52.37650 | 5.01969 | 6328 ft | 265 kts | 60° |
| 2026-04-30 18:40 | 52.38727 | 5.04425 | 6325 ft | 266 kts | 59° |
| 2026-04-30 18:40 | 52.39807 | 5.06892 | 6414 ft | 270 kts | 59° |
| 2026-04-30 18:40 | 52.40911 | 5.09424 | 7378 ft | 273 kts | 58° |
| 2026-04-30 18:41 | 52.42215 | 5.11714 | 8487 ft | 280 kts | 45° |
| 2026-04-30 18:41 | 52.43860 | 5.13501 | 9533 ft | 289 kts | 31° |
| 2026-04-30 18:41 | 52.45775 | 5.14644 | 10520 ft | 299 kts | 19° |
| 2026-04-30 18:41 | 52.47859 | 5.15550 | 10991 ft | 322 kts | 19° |
| 2026-04-30 18:42 | 52.50068 | 5.16511 | 11675 ft | 333 kts | 19° |
| 2026-04-30 18:42 | 52.54622 | 5.18497 | 13451 ft | 343 kts | 19° |
| 2026-04-30 18:42 | 52.56949 | 5.19519 | 14331 ft | 348 kts | 19° |
| 2026-04-30 18:45 | 52.76797 | 5.40199 | 21563 ft | 367 kts | 72° |
| 2026-04-30 18:45 | 52.77654 | 5.44187 | 22207 ft | 371 kts | 72° |
| 2026-04-30 18:45 | 52.78522 | 5.48222 | 22858 ft | 375 kts | 72° |
| 2026-04-30 18:46 | 52.79396 | 5.52299 | 23497 ft | 378 kts | 72° |
| 2026-04-30 18:46 | 52.80515 | 5.56264 | 24081 ft | 386 kts | 57° |
| 2026-04-30 18:46 | 52.82383 | 5.59489 | 24598 ft | 394 kts | 38° |
| 2026-04-30 18:46 | 52.84825 | 5.61614 | 25127 ft | 401 kts | 24° |
| 2026-04-30 18:47 | 52.87402 | 5.63278 | 25653 ft | 404 kts | 23° |
| 2026-04-30 18:47 | 52.90066 | 5.64976 | 26185 ft | 407 kts | 23° |
| 2026-04-30 18:47 | 52.92717 | 5.66671 | 26694 ft | 409 kts | 23° |
| 2026-04-30 18:47 | 52.95342 | 5.68352 | 27192 ft | 412 kts | 23° |
| 2026-04-30 18:48 | 52.98020 | 5.70072 | 27692 ft | 414 kts | 23° |
| 2026-04-30 18:48 | 53.00716 | 5.71812 | 28176 ft | 417 kts | 23° |
| 2026-04-30 18:48 | 53.03419 | 5.73586 | 28664 ft | 419 kts | 25° |
| 2026-04-30 18:48 | 53.05964 | 5.75932 | 29121 ft | 419 kts | 39° |
| 2026-04-30 18:49 | 53.08017 | 5.79352 | 29589 ft | 419 kts | 55° |
| 2026-04-30 18:49 | 53.09404 | 5.83598 | 30034 ft | 420 kts | 69° |
| 2026-04-30 18:49 | 53.10434 | 5.88167 | 30463 ft | 423 kts | 70° |
| 2026-04-30 18:49 | 53.11456 | 5.92777 | 30825 ft | 426 kts | 70° |
| 2026-04-30 18:50 | 53.12481 | 5.97427 | 31197 ft | 429 kts | 70° |
| 2026-04-30 18:50 | 53.13508 | 6.02089 | 31331 ft | 430 kts | 70° |
| 2026-04-30 18:50 | 53.14537 | 6.06759 | 31358 ft | 429 kts | 70° |
| 2026-04-30 18:51 | 53.16592 | 6.16089 | 31358 ft | 429 kts | 70° |
| 2026-04-30 18:51 | 53.18613 | 6.25308 | 31376 ft | 409 kts | 70° |
| 2026-04-30 18:51 | 53.19571 | 6.29678 | 31380 ft | 396 kts | 70° |
| 2026-04-30 18:52 | 53.20534 | 6.34064 | 31386 ft | 410 kts | 70° |
| 2026-04-30 18:52 | 53.21529 | 6.38602 | 31384 ft | 423 kts | 70° |
| 2026-04-30 18:52 | 53.22551 | 6.43284 | 31384 ft | 435 kts | 70° |
| 2026-04-30 18:53 | 53.24644 | 6.52944 | 31382 ft | 446 kts | 70° |
| 2026-04-30 18:53 | 53.26748 | 6.62713 | 31384 ft | 447 kts | 70° |
| 2026-04-30 18:54 | 53.28846 | 6.72484 | 31383 ft | 447 kts | 70° |
| 2026-04-30 18:54 | 53.30936 | 6.82268 | 31391 ft | 447 kts | 70° |
| 2026-04-30 18:55 | 53.33004 | 6.92053 | 31403 ft | 446 kts | 70° |
| 2026-04-30 18:55 | 53.36100 | 7.06741 | 31400 ft | 446 kts | 70° |
| 2026-04-30 18:56 | 53.39178 | 7.21384 | 31395 ft | 446 kts | 70° |
| 2026-04-30 18:57 | 53.42249 | 7.36123 | 31390 ft | 447 kts | 70° |
| 2026-04-30 18:57 | 53.43272 | 7.41052 | 31282 ft | 448 kts | 70° |
| 2026-04-30 18:57 | 53.44284 | 7.45941 | 31034 ft | 438 kts | 70° |
| 2026-04-30 18:58 | 53.46206 | 7.55308 | 30467 ft | 414 kts | 70° |
| 2026-04-30 18:58 | 53.47136 | 7.59848 | 29918 ft | 409 kts | 70° |
| 2026-04-30 18:58 | 53.48056 | 7.64345 | 29345 ft | 405 kts | 70° |
| 2026-04-30 18:59 | 53.49868 | 7.73213 | 28549 ft | 400 kts | 70° |
| 2026-04-30 19:00 | 53.52545 | 7.86394 | 27761 ft | 395 kts | 70° |
| 2026-04-30 19:00 | 53.53425 | 7.90760 | 27501 ft | 393 kts | 70° |
| 2026-04-30 19:00 | 53.55165 | 7.99430 | 26969 ft | 387 kts | 70° |
| 2026-04-30 19:01 | 53.56865 | 8.07927 | 26051 ft | 380 kts | 70° |
| 2026-04-30 19:01 | 53.57707 | 8.12123 | 25602 ft | 377 kts | 71° |
| 2026-04-30 19:02 | 53.59367 | 8.20434 | 24711 ft | 372 kts | 71° |
| 2026-04-30 19:02 | 53.60991 | 8.28642 | 23786 ft | 367 kts | 71° |
| 2026-04-30 19:03 | 53.62583 | 8.36731 | 22865 ft | 360 kts | 71° |
| 2026-04-30 19:03 | 53.64139 | 8.44652 | 22000 ft | 352 kts | 71° |
| 2026-04-30 19:04 | 53.65663 | 8.52410 | 21091 ft | 346 kts | 71° |
| 2026-04-30 19:04 | 53.67157 | 8.60052 | 20196 ft | 341 kts | 71° |
| 2026-04-30 19:05 | 53.68621 | 8.67607 | 19307 ft | 337 kts | 72° |
| 2026-04-30 19:05 | 53.70071 | 8.75086 | 18381 ft | 334 kts | 72° |
| 2026-04-30 19:06 | 53.71490 | 8.82464 | 17518 ft | 327 kts | 72° |
| 2026-04-30 19:06 | 53.72191 | 8.86104 | 17100 ft | 324 kts | 72° |
| 2026-04-30 19:06 | 53.73553 | 8.93213 | 16597 ft | 307 kts | 72° |
| 2026-04-30 19:07 | 53.74802 | 8.99734 | 16341 ft | 280 kts | 72° |
| 2026-04-30 19:07 | 53.75396 | 9.02842 | 15962 ft | 281 kts | 73° |
| 2026-04-30 19:08 | 53.76625 | 9.09303 | 15060 ft | 291 kts | 73° |
| 2026-04-30 19:08 | 53.77848 | 9.15781 | 14481 ft | 286 kts | 73° |
| 2026-04-30 19:08 | 53.78443 | 9.18930 | 14428 ft | 275 kts | 73° |
| 2026-04-30 19:09 | 53.79557 | 9.24842 | 14437 ft | 255 kts | 73° |
| 2026-04-30 19:09 | 53.80089 | 9.27683 | 14436 ft | 253 kts | 73° |
| 2026-04-30 19:09 | 53.80618 | 9.30517 | 14437 ft | 253 kts | 73° |
| 2026-04-30 19:10 | 53.81464 | 9.36261 | 14441 ft | 252 kts | 91° |
| 2026-04-30 19:10 | 53.79924 | 9.41305 | 14439 ft | 262 kts | 143° |
| 2026-04-30 19:11 | 53.78200 | 9.42374 | 14439 ft | 272 kts | 172° |
| 2026-04-30 19:11 | 53.74824 | 9.39667 | 14435 ft | 290 kts | 236° |
| 2026-04-30 19:11 | 53.74032 | 9.36519 | 14439 ft | 294 kts | 250° |
| 2026-04-30 19:12 | 53.73336 | 9.33273 | 14440 ft | 294 kts | 249° |
| 2026-04-30 19:12 | 53.72612 | 9.30045 | 14438 ft | 294 kts | 248° |
| 2026-04-30 19:12 | 53.71903 | 9.26801 | 14433 ft | 295 kts | 254° |
| 2026-04-30 19:13 | 53.72916 | 9.20536 | 14435 ft | 285 kts | 323° |
| 2026-04-30 19:13 | 53.76459 | 9.19164 | 14236 ft | 261 kts | 23° |
| 2026-04-30 19:13 | 53.77966 | 9.20716 | 13948 ft | 252 kts | 50° |
| 2026-04-30 19:14 | 53.78870 | 9.23192 | 13656 ft | 248 kts | 69° |
| 2026-04-30 19:14 | 53.79507 | 9.25905 | 13449 ft | 248 kts | 71° |
| 2026-04-30 19:14 | 53.80113 | 9.28642 | 13436 ft | 249 kts | 71° |
| 2026-04-30 19:14 | 53.80714 | 9.31401 | 13438 ft | 250 kts | 71° |
| 2026-04-30 19:15 | 53.81311 | 9.34161 | 13381 ft | 249 kts | 73° |
| 2026-04-30 19:15 | 53.80832 | 9.39711 | 12827 ft | 250 kts | 124° |
| 2026-04-30 19:15 | 53.79502 | 9.41607 | 12556 ft | 256 kts | 152° |
| 2026-04-30 19:16 | 53.77749 | 9.42201 | 12431 ft | 264 kts | 181° |
| 2026-04-30 19:16 | 53.75984 | 9.41237 | 12438 ft | 274 kts | 211° |
| 2026-04-30 19:16 | 53.73986 | 9.35758 | 12440 ft | 283 kts | 249° |
| 2026-04-30 19:17 | 53.73294 | 9.32651 | 12440 ft | 283 kts | 249° |
| 2026-04-30 19:17 | 53.71971 | 9.26385 | 12429 ft | 284 kts | 258° |
| 2026-04-30 19:17 | 53.72113 | 9.23108 | 12431 ft | 282 kts | 293° |
| 2026-04-30 19:18 | 53.73731 | 9.19896 | 12437 ft | 272 kts | 336° |
| 2026-04-30 19:18 | 53.76677 | 9.19486 | 12434 ft | 256 kts | 25° |
| 2026-04-30 19:18 | 53.78124 | 9.21113 | 12432 ft | 249 kts | 52° |
| 2026-04-30 19:19 | 53.78971 | 9.23623 | 12440 ft | 247 kts | 70° |
| 2026-04-30 19:19 | 53.79595 | 9.26331 | 12437 ft | 247 kts | 71° |
| 2026-04-30 19:19 | 53.80794 | 9.31792 | 12435 ft | 248 kts | 71° |
| 2026-04-30 19:20 | 53.81376 | 9.34529 | 12436 ft | 247 kts | 75° |
| 2026-04-30 19:20 | 53.81429 | 9.37404 | 12437 ft | 247 kts | 102° |
| 2026-04-30 19:20 | 53.79224 | 9.41691 | 12437 ft | 259 kts | 157° |
| 2026-04-30 19:21 | 53.77422 | 9.41985 | 12437 ft | 268 kts | 187° |
| 2026-04-30 19:21 | 53.74645 | 9.37966 | 12443 ft | 281 kts | 248° |
| 2026-04-30 19:22 | 53.73257 | 9.31754 | 12437 ft | 283 kts | 249° |
| 2026-04-30 19:22 | 53.72257 | 9.23279 | 12433 ft | 282 kts | 292° |
| 2026-04-30 19:23 | 53.76828 | 9.19711 | 12434 ft | 255 kts | 26° |
| 2026-04-30 19:24 | 53.79036 | 9.23975 | 12438 ft | 247 kts | 70° |
| 2026-04-30 19:24 | 53.79658 | 9.26681 | 12437 ft | 247 kts | 71° |
| 2026-04-30 19:24 | 53.80866 | 9.32132 | 12438 ft | 248 kts | 71° |
| 2026-04-30 19:25 | 53.80509 | 9.40271 | 12437 ft | 252 kts | 133° |
| 2026-04-30 19:26 | 53.77185 | 9.41897 | 12429 ft | 268 kts | 191° |
| 2026-04-30 19:26 | 53.74566 | 9.37642 | 11899 ft | 277 kts | 249° |
| 2026-04-30 19:26 | 53.73889 | 9.34592 | 11596 ft | 277 kts | 249° |
| 2026-04-30 19:27 | 53.72537 | 9.28511 | 11434 ft | 277 kts | 248° |
| 2026-04-30 19:27 | 53.72537 | 9.22266 | 11437 ft | 274 kts | 304° |
| 2026-04-30 19:28 | 53.73869 | 9.20067 | 11437 ft | 267 kts | 336° |
| 2026-04-30 19:28 | 53.77307 | 9.20108 | 11436 ft | 250 kts | 34° |
| 2026-04-30 19:29 | 53.79230 | 9.24724 | 11437 ft | 245 kts | 70° |
| 2026-04-30 19:29 | 53.79838 | 9.27417 | 11439 ft | 245 kts | 71° |
| 2026-04-30 19:30 | 53.81495 | 9.35585 | 11433 ft | 244 kts | 86° |
| 2026-04-30 19:30 | 53.80178 | 9.40681 | 11438 ft | 251 kts | 140° |
| 2026-04-30 19:31 | 53.76942 | 9.42954 | 11011 ft | 251 kts | 148° |
| 2026-04-30 19:31 | 53.75476 | 9.44467 | 10734 ft | 250 kts | 144° |
| 2026-04-30 19:31 | 53.72547 | 9.47642 | 10177 ft | 247 kts | 144° |
| 2026-04-30 19:32 | 53.71104 | 9.49211 | 9868 ft | 246 kts | 144° |
| 2026-04-30 19:32 | 53.69686 | 9.50746 | 9559 ft | 245 kts | 144° |
| 2026-04-30 19:32 | 53.68418 | 9.52583 | 9235 ft | 239 kts | 123° |
| 2026-04-30 19:32 | 53.67600 | 9.54994 | 8916 ft | 236 kts | 115° |
| 2026-04-30 19:33 | 53.66866 | 9.57462 | 8589 ft | 235 kts | 114° |
| 2026-04-30 19:33 | 53.66144 | 9.59921 | 8259 ft | 233 kts | 114° |
| 2026-04-30 19:33 | 53.65428 | 9.62369 | 7947 ft | 232 kts | 114° |
| 2026-04-30 19:33 | 53.64714 | 9.64797 | 7627 ft | 231 kts | 116° |
| 2026-04-30 19:34 | 53.63630 | 9.66779 | 7300 ft | 235 kts | 146° |
| 2026-04-30 19:34 | 53.62052 | 9.67486 | 6985 ft | 241 kts | 178° |
| 2026-04-30 19:34 | 53.59187 | 9.64652 | 6296 ft | 251 kts | 227° |
| 2026-04-30 19:35 | 53.58076 | 9.62384 | 5966 ft | 250 kts | 229° |
| 2026-04-30 19:35 | 53.56990 | 9.60110 | 5643 ft | 249 kts | 229° |
| 2026-04-30 19:35 | 53.55915 | 9.57848 | 5339 ft | 246 kts | 229° |
| 2026-04-30 19:35 | 53.54852 | 9.55603 | 5024 ft | 244 kts | 229° |
| 2026-04-30 19:36 | 53.53798 | 9.53376 | 4721 ft | 242 kts | 229° |
| 2026-04-30 19:36 | 53.52755 | 9.51178 | 4407 ft | 240 kts | 229° |
| 2026-04-30 19:36 | 53.50691 | 9.46850 | 4001 ft | 235 kts | 229° |
| 2026-04-30 19:37 | 53.49667 | 9.44708 | 4005 ft | 236 kts | 229° |
| 2026-04-30 19:37 | 53.48638 | 9.42558 | 4009 ft | 236 kts | 229° |
| 2026-04-30 19:37 | 53.47613 | 9.40411 | 4006 ft | 236 kts | 229° |
| 2026-04-30 19:37 | 53.46587 | 9.38261 | 4005 ft | 236 kts | 229° |
| 2026-04-30 19:38 | 53.45562 | 9.36114 | 4006 ft | 236 kts | 229° |
| 2026-04-30 19:38 | 53.44537 | 9.33965 | 4006 ft | 236 kts | 229° |
| 2026-04-30 19:38 | 53.43514 | 9.31820 | 4004 ft | 235 kts | 229° |
| 2026-04-30 19:38 | 53.42492 | 9.29674 | 4005 ft | 235 kts | 229° |
| 2026-04-30 19:39 | 53.41472 | 9.27528 | 4002 ft | 236 kts | 229° |
| 2026-04-30 19:39 | 53.40304 | 9.25650 | 3999 ft | 232 kts | 206° |
| 2026-04-30 19:39 | 53.38772 | 9.25051 | 3998 ft | 226 kts | 173° |
| 2026-04-30 19:39 | 53.37335 | 9.25951 | 4006 ft | 222 kts | 141° |
| 2026-04-30 19:40 | 53.36459 | 9.28028 | 4002 ft | 221 kts | 108° |
| 2026-04-30 19:40 | 53.36360 | 9.30587 | 4007 ft | 223 kts | 86° |
| 2026-04-30 19:40 | 53.36526 | 9.33167 | 4003 ft | 223 kts | 84° |
| 2026-04-30 19:40 | 53.36714 | 9.35742 | 4002 ft | 223 kts | 84° |
| 2026-04-30 19:41 | 53.36902 | 9.38279 | 4004 ft | 223 kts | 84° |
| 2026-04-30 19:41 | 53.37091 | 9.40858 | 4005 ft | 223 kts | 84° |
| 2026-04-30 19:41 | 53.37280 | 9.43433 | 4005 ft | 223 kts | 84° |
| 2026-04-30 19:41 | 53.37471 | 9.46014 | 4006 ft | 223 kts | 83° |
| 2026-04-30 19:42 | 53.37994 | 9.48453 | 4004 ft | 226 kts | 60° |
| 2026-04-30 19:42 | 53.38934 | 9.50576 | 4009 ft | 227 kts | 52° |
| 2026-04-30 19:42 | 53.39952 | 9.52590 | 4006 ft | 224 kts | 51° |
| 2026-04-30 19:42 | 53.40949 | 9.54555 | 4006 ft | 220 kts | 52° |
| 2026-04-30 19:43 | 53.41928 | 9.56498 | 4004 ft | 214 kts | 52° |
| 2026-04-30 19:43 | 53.42873 | 9.58376 | 4009 ft | 209 kts | 52° |
| 2026-04-30 19:43 | 53.43807 | 9.60237 | 3912 ft | 207 kts | 52° |
| 2026-04-30 19:44 | 53.45655 | 9.63919 | 3892 ft | 206 kts | 52° |
| 2026-04-30 19:44 | 53.46579 | 9.65761 | 3894 ft | 206 kts | 52° |
| 2026-04-30 19:44 | 53.47503 | 9.67605 | 3894 ft | 206 kts | 52° |
| 2026-04-30 19:44 | 53.48426 | 9.69449 | 3893 ft | 206 kts | 51° |
| 2026-04-30 19:45 | 53.49351 | 9.71299 | 3839 ft | 207 kts | 51° |
| 2026-04-30 19:45 | 53.50275 | 9.73147 | 3621 ft | 206 kts | 51° |
| 2026-04-30 19:45 | 53.51197 | 9.74992 | 3357 ft | 206 kts | 51° |
| 2026-04-30 19:45 | 53.52120 | 9.76842 | 3080 ft | 207 kts | 51° |
| 2026-04-30 19:46 | 53.53046 | 9.78698 | 2800 ft | 207 kts | 51° |
| 2026-04-30 19:46 | 53.53956 | 9.80525 | 2516 ft | 199 kts | 51° |
| 2026-04-30 19:46 | 53.54818 | 9.82253 | 2263 ft | 188 kts | 51° |
| 2026-04-30 19:46 | 53.55628 | 9.83881 | 2008 ft | 175 kts | 52° |
| 2026-04-30 19:47 | 53.56375 | 9.85382 | 1782 ft | 161 kts | 52° |
| 2026-04-30 19:47 | 53.56836 | 9.86311 | 1638 ft | 152 kts | 52° |
| 2026-04-30 19:47 | 53.57699 | 9.88046 | 1389 ft | 136 kts | 52° |
| 2026-04-30 19:47 | 53.58282 | 9.89222 | 1206 ft | 127 kts | 52° |
| 2026-04-30 19:48 | 53.58839 | 9.90344 | 1039 ft | 123 kts | 52° |
| 2026-04-30 19:48 | 53.59387 | 9.91447 | 859 ft | 122 kts | 51° |
| 2026-04-30 19:48 | 53.59931 | 9.92544 | 706 ft | 123 kts | 51° |
| 2026-04-30 19:48 | 53.60473 | 9.93642 | 556 ft | 122 kts | 51° |
| 2026-04-30 19:49 | 53.61014 | 9.94734 | 381 ft | 122 kts | 52° |
| 2026-04-30 19:49 | 53.62085 | 9.96891 | 85 ft | 119 kts | 52° |
| 2026-04-30 19:49 | 53.62572 | 9.97890 | 48 ft | 91 kts | 50° |
| 2026-04-30 19:50 | 53.62757 | 9.98289 | 50 ft | 23 kts | 84° |
| 2026-04-30 19:50 | 53.62705 | 9.98413 | 51 ft | 0 kts | 141° |
| 2026-04-30 19:51 | 53.62696 | 9.98426 | 51 ft | 4 kts | 141° |
| 2026-04-30 19:51 | 53.62675 | 9.98487 | 51 ft | 8 kts | 96° |
| 2026-04-30 19:52 | 53.62708 | 9.98586 | 51 ft | 12 kts | 51° |
| 2026-04-30 19:52 | 53.62768 | 9.98710 | 50 ft | 15 kts | 50° |
| 2026-04-30 19:52 | 53.62833 | 9.98840 | 50 ft | 15 kts | 50° |
| 2026-04-30 19:52 | 53.62900 | 9.98976 | 50 ft | 16 kts | 50° |
| 2026-04-30 19:53 | 53.62976 | 9.99128 | 51 ft | 14 kts | 50° |
| 2026-04-30 19:53 | 53.63040 | 9.99263 | 50 ft | 16 kts | 52° |
| 2026-04-30 19:53 | 53.63078 | 9.99350 | 50 ft | 0 kts | 54° |
| 2026-04-30 19:54 | 53.63079 | 9.99351 | 50 ft | 1 kts | 54° |
| 2026-04-30 19:54 | 53.63115 | 9.99436 | 50 ft | 18 kts | 54° |
| 2026-04-30 19:54 | 53.63187 | 9.99597 | 50 ft | 12 kts | 52° |
| 2026-04-30 19:55 | 53.63207 | 9.99639 | 50 ft | 2 kts | 49° |
| 2026-04-30 19:55 | 53.63210 | 9.99645 | 50 ft | 0 kts | 48° |
| 2026-04-30 19:55 | 53.63210 | 9.99646 | 50 ft | 0 kts | 48° |
| 2026-04-30 19:55 | 53.63220 | 9.99666 | 50 ft | 4 kts | 56° |
| 2026-04-30 19:56 | 53.63224 | 9.99727 | 50 ft | 6 kts | 99° |
| 2026-04-30 19:56 | 53.63191 | 9.99790 | 50 ft | 8 kts | 145° |
| 2026-04-30 19:56 | 53.63144 | 9.99833 | 50 ft | 1 kts | 151° |
| 2026-04-30 19:56 | 53.63134 | 9.99850 | 50 ft | 3 kts | 130° |
| 2026-04-30 19:57 | 53.63126 | 9.99902 | 51 ft | 6 kts | 91° |
| 2026-04-30 19:57 | 53.63137 | 9.99944 | 38 ft | 1 kts | 56° |
| 2026-04-30 19:57 | 53.63152 | 9.99951 | 52 ft | 3 kts | 357° |
| 2026-04-30 19:57 | 53.63173 | 9.99930 | 48 ft | 4 kts | 326° |
| 2026-04-30 19:58 | 53.63183 | 9.99918 | 53 ft | 1 kts | 324° |
| 2026-04-30 19:58 | 53.63190 | 9.99909 | 51 ft | 1 kts | 323° |
| 2026-04-30 19:58 | 53.63193 | 9.99905 | 51 ft | 0 kts | 323° |